createdAt,value
2022-12-28T00:00:11.068Z,29.00
2022-12-28T00:03:02.700Z,27.70
2022-12-28T00:05:31.095Z,27.50
2022-12-28T00:07:59.300Z,28.50
2022-12-28T00:11:08.086Z,29.40
2022-12-28T00:13:15.937Z,26.80
2022-12-28T00:15:44.128Z,30.30
2022-12-28T00:18:12.329Z,31.70
2022-12-28T00:20:40.548Z,28.90
2022-12-28T00:23:08.936Z,29.00
2022-12-28T00:25:37.132Z,28.40
2022-12-28T00:28:05.799Z,28.70
2022-12-28T00:30:34.026Z,25.30
2022-12-28T00:33:02.258Z,24.90
2022-12-28T00:35:30.549Z,25.40
2022-12-28T00:37:58.752Z,26.20
2022-12-28T00:40:27.009Z,26.90
2022-12-28T00:42:55.246Z,26.30
2022-12-28T00:45:24.968Z,28.40
2022-12-28T00:47:53.185Z,25.30
2022-12-28T00:50:21.470Z,27.40
2022-12-28T00:52:49.702Z,27.80
2022-12-28T00:55:17.981Z,25.30
2022-12-28T00:57:46.166Z,29.60
2022-12-28T01:00:16.517Z,28.70
2022-12-28T01:02:54.182Z,28.00
2022-12-28T01:05:22.874Z,25.70
2022-12-28T01:07:51.328Z,32.30
2022-12-28T01:10:19.670Z,30.60
2022-12-28T01:12:51.208Z,26.40
2022-12-28T01:15:21.435Z,26.10
2022-12-28T01:17:49.621Z,26.50
2022-12-28T01:20:18.067Z,28.30
2022-12-28T01:22:48.804Z,28.10
2022-12-28T01:25:17.239Z,29.60
2022-12-28T01:27:45.498Z,26.10
2022-12-28T01:30:19.852Z,29.20
2022-12-28T01:32:48.032Z,29.10
2022-12-28T01:35:16.431Z,27.80
2022-12-28T01:37:44.617Z,26.30
2022-12-28T01:40:15.436Z,25.60
2022-12-28T01:42:43.672Z,29.00
2022-12-28T01:45:17.652Z,26.30
2022-12-28T01:47:49.031Z,27.40
2022-12-28T01:50:22.130Z,27.70
2022-12-28T01:52:55.155Z,27.40
2022-12-28T01:55:27.364Z,25.50
2022-12-28T01:57:58.564Z,30.70
2022-12-28T02:00:26.831Z,29.30
2022-12-28T02:02:58.691Z,24.70
2022-12-28T02:05:30.840Z,29.60
2022-12-28T02:08:04.844Z,26.20
2022-12-28T02:10:43.820Z,31.80
2022-12-28T02:13:15.490Z,29.00
2022-12-28T02:15:44.818Z,27.90
2022-12-28T02:18:15.371Z,31.70
2022-12-28T02:21:01.696Z,29.50
2022-12-28T02:23:44.557Z,30.50
2022-12-28T02:26:46.403Z,26.80
2022-12-28T02:29:46.542Z,27.90
2022-12-28T02:35:20.273Z,27.10
2022-12-28T02:37:55.093Z,25.80
2022-12-28T02:40:28.774Z,31.70
2022-12-28T02:43:02.821Z,28.70
2022-12-28T02:45:55.471Z,27.90
2022-12-28T02:48:42.153Z,27.90
2022-12-28T02:51:34.252Z,27.40
2022-12-28T02:54:48.820Z,28.10
2022-12-28T02:57:33.112Z,24.80
2022-12-28T03:00:06.827Z,28.30
2022-12-28T03:03:01.425Z,24.90
2022-12-28T03:05:54.227Z,27.50
2022-12-28T03:08:46.934Z,33.00
2022-12-28T03:11:19.301Z,28.10
2022-12-28T03:14:04.230Z,31.80
2022-12-28T03:17:00.259Z,31.20
2022-12-28T03:20:03.763Z,27.50
2022-12-28T03:23:00.300Z,28.30
2022-12-28T03:25:55.451Z,28.90
2022-12-28T03:28:48.970Z,27.00
2022-12-28T03:31:22.826Z,31.50
2022-12-28T03:34:05.832Z,27.20
2022-12-28T03:36:51.785Z,25.50
2022-12-28T03:39:27.428Z,26.60
2022-12-28T03:42:17.572Z,24.50
2022-12-28T03:44:51.988Z,25.50
2022-12-28T03:47:24.924Z,27.90
2022-12-28T03:49:53.191Z,29.30
2022-12-28T03:52:22.068Z,24.70
2022-12-28T03:54:51.042Z,29.50
2022-12-28T03:57:25.716Z,24.80
2022-12-28T03:59:54.967Z,25.80
2022-12-28T04:02:24.506Z,26.30
2022-12-28T04:04:53.331Z,28.50
2022-12-28T04:07:21.588Z,25.40
2022-12-28T04:09:50.153Z,24.40
2022-12-28T04:12:18.332Z,22.60
2022-12-28T04:15:07.084Z,26.60
2022-12-28T04:17:35.984Z,26.50
2022-12-28T04:20:06.054Z,26.80
2022-12-28T04:22:34.768Z,26.10
2022-12-28T04:25:05.326Z,24.70
2022-12-28T04:27:35.465Z,30.40
2022-12-28T04:30:11.037Z,28.40
2022-12-28T04:32:39.316Z,26.80
2022-12-28T04:35:08.692Z,25.50
2022-12-28T04:37:44.835Z,25.30
2022-12-28T04:40:13.646Z,28.00
2022-12-28T04:42:41.849Z,29.00
2022-12-28T04:45:10.977Z,26.90
2022-12-28T04:47:39.172Z,27.70
2022-12-28T04:50:08.511Z,29.20
2022-12-28T04:52:36.662Z,28.10
2022-12-28T04:55:05.812Z,25.40
2022-12-28T04:57:34.066Z,29.50
2022-12-28T05:00:02.288Z,26.50
2022-12-28T05:02:31.514Z,24.80
2022-12-28T05:04:59.852Z,27.70
2022-12-28T05:07:28.728Z,26.40
2022-12-28T05:09:57.086Z,25.30
2022-12-28T05:12:25.856Z,24.60
2022-12-28T05:14:54.043Z,25.40
2022-12-28T05:17:22.211Z,26.20
2022-12-28T05:19:50.363Z,25.10
2022-12-28T05:22:18.584Z,24.60
2022-12-28T05:24:46.815Z,26.50
2022-12-28T05:27:15.002Z,28.20
2022-12-28T05:29:43.217Z,25.20
2022-12-28T05:32:11.386Z,26.60
2022-12-28T05:34:41.906Z,24.30
2022-12-28T05:37:10.543Z,25.10
2022-12-28T05:39:38.708Z,24.60
2022-12-28T05:42:07.124Z,26.50
2022-12-28T05:44:35.463Z,25.00
2022-12-28T05:47:03.757Z,26.40
2022-12-28T05:49:31.966Z,22.80
2022-12-28T05:52:00.131Z,21.90
2022-12-28T05:54:28.321Z,27.50
2022-12-28T05:56:56.491Z,22.20
2022-12-28T05:59:29.155Z,22.20
2022-12-28T06:01:58.646Z,20.60
2022-12-28T06:04:27.072Z,20.40
2022-12-28T06:06:55.272Z,22.40
2022-12-28T06:09:23.465Z,21.80
2022-12-28T06:11:51.608Z,23.10
2022-12-28T06:14:19.773Z,20.60
2022-12-28T06:16:48.014Z,24.60
2022-12-28T06:19:17.562Z,22.80
2022-12-28T06:21:45.711Z,23.90
2022-12-28T06:24:13.896Z,22.00
2022-12-28T06:26:42.291Z,24.00
2022-12-28T06:29:10.951Z,22.40
2022-12-28T06:31:41.210Z,24.50
2022-12-28T06:34:10.116Z,24.00
2022-12-28T06:36:40.517Z,21.00
2022-12-28T06:39:10.052Z,25.40
2022-12-28T06:41:39.022Z,24.90
2022-12-28T06:44:07.870Z,25.20
2022-12-28T06:46:36.909Z,26.80
2022-12-28T06:49:05.291Z,22.40
2022-12-28T06:51:37.803Z,31.10
2022-12-28T06:54:07.026Z,23.50
2022-12-28T06:56:35.907Z,20.20
2022-12-28T06:59:04.914Z,25.10
2022-12-28T07:01:35.115Z,20.30
2022-12-28T07:04:06.178Z,20.10
2022-12-28T07:06:37.290Z,18.90
2022-12-28T07:09:07.741Z,20.60
2022-12-28T07:11:36.795Z,20.80
2022-12-28T07:14:05.073Z,22.70
2022-12-28T07:19:01.393Z,20.50
2022-12-28T07:21:31.046Z,18.90
2022-12-28T07:23:59.854Z,21.60
2022-12-28T07:26:30.051Z,20.60
2022-12-28T07:29:00.511Z,20.70
2022-12-28T07:31:30.956Z,19.80
2022-12-28T07:34:00.496Z,24.70
2022-12-28T07:36:30.559Z,25.30
2022-12-28T07:38:59.599Z,24.00
2022-12-28T07:41:29.628Z,23.40
2022-12-28T07:46:29.156Z,24.30
2022-12-28T07:48:58.056Z,28.30
2022-12-28T07:51:28.480Z,26.80
2022-12-28T07:53:58.645Z,28.50
2022-12-28T07:56:28.630Z,26.90
2022-12-28T07:58:58.828Z,28.30
2022-12-28T08:01:29.221Z,28.90
2022-12-28T08:03:59.800Z,28.00
2022-12-28T08:06:29.911Z,29.90
2022-12-28T08:09:00.859Z,28.90
2022-12-28T08:11:31.287Z,25.80
2022-12-28T08:14:00.426Z,27.40
2022-12-28T08:16:30.814Z,27.30
2022-12-28T08:18:59.507Z,26.30
2022-12-28T08:21:29.515Z,27.10
2022-12-28T08:23:58.540Z,22.20
2022-12-28T08:26:29.233Z,23.40
2022-12-28T08:29:00.039Z,24.10
2022-12-28T08:31:30.406Z,23.40
2022-12-28T08:34:00.197Z,21.70
2022-12-28T08:36:29.031Z,20.40
2022-12-28T08:38:57.662Z,22.70
2022-12-28T08:41:27.474Z,21.30
2022-12-28T08:43:56.443Z,17.50
2022-12-28T08:46:26.560Z,18.10
2022-12-28T08:48:56.886Z,19.00
2022-12-28T08:51:26.819Z,21.10
2022-12-28T08:53:55.025Z,18.40
2022-12-28T08:56:25.186Z,18.90
2022-12-28T08:58:54.209Z,19.70
2022-12-28T09:01:24.206Z,17.40
2022-12-28T09:03:54.722Z,17.70
2022-12-28T09:06:26.075Z,19.60
2022-12-28T09:09:05.507Z,18.80
2022-12-28T09:11:36.269Z,20.40
2022-12-28T09:14:05.697Z,18.80
2022-12-28T09:16:34.504Z,22.80
2022-12-28T09:19:05.023Z,21.80
2022-12-28T09:21:35.188Z,19.30
2022-12-28T09:24:04.407Z,17.50
2022-12-28T09:26:36.295Z,20.80
2022-12-28T09:29:06.460Z,22.00
2022-12-28T09:31:36.539Z,25.80
2022-12-28T09:36:53.847Z,22.90
2022-12-28T09:39:23.863Z,25.00
2022-12-28T09:41:56.123Z,24.20
2022-12-28T09:44:48.903Z,25.10
2022-12-28T09:47:33.678Z,23.20
2022-12-28T09:50:16.782Z,22.80
2022-12-28T09:52:56.052Z,22.30
2022-12-28T09:55:26.198Z,22.00
2022-12-28T09:57:57.260Z,21.60
2022-12-28T10:00:31.625Z,23.80
2022-12-28T10:03:03.427Z,23.40
2022-12-28T10:05:31.976Z,21.30
2022-12-28T10:08:00.229Z,23.70
2022-12-28T10:10:29.299Z,24.50
2022-12-28T10:13:37.155Z,22.40
2022-12-28T10:15:59.108Z,26.40
2022-12-28T10:18:28.561Z,20.60
2022-12-28T10:20:57.068Z,27.10
2022-12-28T10:23:29.445Z,20.50
2022-12-28T10:26:00.507Z,23.40
2022-12-28T10:28:32.992Z,24.20
2022-12-28T10:31:07.329Z,22.10
2022-12-28T10:33:39.834Z,23.90
2022-12-28T10:36:12.552Z,21.30
2022-12-28T10:38:43.196Z,25.70
2022-12-28T10:41:15.151Z,25.40
2022-12-28T10:44:08.596Z,22.10
2022-12-28T10:46:38.225Z,21.20
2022-12-28T10:49:15.706Z,22.50
2022-12-28T10:51:59.523Z,22.60
2022-12-28T10:54:31.303Z,21.60
2022-12-28T10:56:59.564Z,21.10
2022-12-28T10:59:29.716Z,23.80
2022-12-28T11:02:22.182Z,25.10
2022-12-28T11:04:58.983Z,26.40
2022-12-28T11:07:33.031Z,22.70
2022-12-28T11:10:24.157Z,21.90
2022-12-28T11:12:54.171Z,22.40
2022-12-28T11:15:25.012Z,24.00
2022-12-28T11:17:58.385Z,22.30
2022-12-28T11:20:31.805Z,24.40
2022-12-28T11:23:00.749Z,24.20
2022-12-28T11:25:32.848Z,24.20
2022-12-28T11:28:04.884Z,24.30
2022-12-28T11:30:33.046Z,23.90
2022-12-28T11:33:04.168Z,22.80
2022-12-28T11:35:37.044Z,19.70
2022-12-28T11:38:06.888Z,19.00
2022-12-28T11:40:51.555Z,20.20
2022-12-28T11:43:52.549Z,21.30
2022-12-28T11:46:39.454Z,20.80
2022-12-28T11:49:27.305Z,20.20
2022-12-28T11:52:43.492Z,20.80
2022-12-28T11:55:50.457Z,19.60
2022-12-28T11:58:43.692Z,18.70
2022-12-28T12:01:42.497Z,17.80
2022-12-28T12:04:38.192Z,19.00
2022-12-28T12:07:20.054Z,15.70
2022-12-28T12:09:49.724Z,18.10
2022-12-28T12:12:36.667Z,17.40
2022-12-28T12:15:12.536Z,16.60
2022-12-28T12:17:47.524Z,15.80
2022-12-28T12:20:48.456Z,18.40
2022-12-28T12:23:38.656Z,23.30
2022-12-28T12:26:20.322Z,18.20
2022-12-28T12:28:50.551Z,18.10
2022-12-28T12:31:28.127Z,19.20
2022-12-28T12:34:03.462Z,20.10
2022-12-28T12:36:47.208Z,18.60
2022-12-28T12:39:31.461Z,21.20
2022-12-28T12:42:09.872Z,19.10
2022-12-28T12:44:46.102Z,20.00
2022-12-28T12:47:39.407Z,17.10
2022-12-28T12:50:20.191Z,21.30
2022-12-28T12:53:00.821Z,16.80
2022-12-28T12:55:42.241Z,19.30
2022-12-28T12:58:21.397Z,16.90
2022-12-28T13:01:08.806Z,17.10
2022-12-28T13:03:43.978Z,17.20
2022-12-28T13:06:15.597Z,15.90
2022-12-28T13:11:17.456Z,16.80
2022-12-28T13:13:48.760Z,16.50
2022-12-28T13:16:20.176Z,13.90
2022-12-28T13:18:56.612Z,14.60
2022-12-28T13:21:27.264Z,12.80
2022-12-28T13:23:55.897Z,14.50
2022-12-28T13:26:28.411Z,13.60
2022-12-28T13:28:59.657Z,12.50
2022-12-28T13:31:33.671Z,12.70
2022-12-28T13:34:04.044Z,10.60
2022-12-28T13:36:32.645Z,10.70
2022-12-28T13:39:04.533Z,13.40
2022-12-28T13:41:34.847Z,11.30
2022-12-28T13:44:26.567Z,10.10
2022-12-28T13:47:01.679Z,11.30
2022-12-28T13:49:35.905Z,11.10
2022-12-28T13:52:08.673Z,11.00
2022-12-28T13:54:38.074Z,9.20
2022-12-28T13:57:44.523Z,9.40
2022-12-28T13:59:57.115Z,11.60
2022-12-28T14:02:28.125Z,11.10
2022-12-28T14:04:56.792Z,8.50
2022-12-28T14:07:28.968Z,13.90
2022-12-28T14:09:58.176Z,15.50
2022-12-28T14:12:27.384Z,10.40
2022-12-28T14:14:56.427Z,10.20
2022-12-28T14:17:27.730Z,10.20
2022-12-28T14:19:57.723Z,12.90
2022-12-28T14:22:28.783Z,11.10
2022-12-28T14:25:07.000Z,11.80
2022-12-28T14:27:39.457Z,12.20
2022-12-28T14:30:21.945Z,11.60
2022-12-28T14:32:50.719Z,12.00
2022-12-28T14:35:22.335Z,13.50
2022-12-28T14:40:26.051Z,10.20
2022-12-28T14:42:56.114Z,12.20
2022-12-28T14:46:07.485Z,12.80
2022-12-28T14:48:32.325Z,12.40
2022-12-28T14:51:04.249Z,15.50
2022-12-28T14:53:33.332Z,11.50
2022-12-28T14:56:06.684Z,12.00
2022-12-28T14:58:40.929Z,11.30
2022-12-28T15:01:09.649Z,12.70
2022-12-28T15:03:52.687Z,12.10
2022-12-28T15:06:21.499Z,13.90
2022-12-28T15:08:58.171Z,13.40
2022-12-28T15:11:31.137Z,15.10
2022-12-28T15:14:01.359Z,14.40
2022-12-28T15:16:29.710Z,15.90
2022-12-28T15:18:58.067Z,21.00
2022-12-28T15:21:45.478Z,14.90
2022-12-28T15:24:15.807Z,13.70
2022-12-28T15:26:46.213Z,16.60
2022-12-28T15:29:22.161Z,15.10
2022-12-28T15:32:02.986Z,14.90
2022-12-28T15:34:31.161Z,13.70
2022-12-28T15:37:00.705Z,15.40
2022-12-28T15:39:34.131Z,16.80
2022-12-28T15:42:02.596Z,18.40
2022-12-28T15:44:30.890Z,17.00
2022-12-28T15:46:59.264Z,16.50
2022-12-28T15:49:27.530Z,16.70
2022-12-28T15:51:55.796Z,15.00
2022-12-28T15:54:23.993Z,17.40
2022-12-28T15:56:54.149Z,16.20
2022-12-28T15:59:22.756Z,16.80
2022-12-28T16:01:51.273Z,15.50
2022-12-28T16:04:19.972Z,17.30
2022-12-28T16:06:48.181Z,17.60
2022-12-28T16:09:16.417Z,18.70
2022-12-28T16:11:46.578Z,18.30
2022-12-28T16:14:18.700Z,16.40
2022-12-28T16:16:46.960Z,19.00
2022-12-28T16:19:16.543Z,19.50
2022-12-28T16:21:44.904Z,26.60
2022-12-28T16:24:13.084Z,23.80
2022-12-28T16:26:41.229Z,18.30
2022-12-28T16:29:09.431Z,16.20
2022-12-28T16:31:39.015Z,20.80
2022-12-28T16:34:09.933Z,16.30
2022-12-28T16:36:38.177Z,17.50
2022-12-28T16:39:08.346Z,18.00
2022-12-28T16:41:37.440Z,17.70
2022-12-28T16:44:08.532Z,17.50
2022-12-28T16:46:36.813Z,22.00
2022-12-28T16:49:04.989Z,18.30
2022-12-28T16:51:33.206Z,20.50
2022-12-28T16:54:01.473Z,17.50
2022-12-28T16:56:29.690Z,18.10
2022-12-28T16:58:58.893Z,21.10
2022-12-28T17:01:27.955Z,25.40
2022-12-28T17:04:01.825Z,21.90
2022-12-28T17:06:31.846Z,22.60
2022-12-28T17:09:01.731Z,22.90
2022-12-28T17:11:30.384Z,20.40
2022-12-28T17:14:01.243Z,20.60
2022-12-28T17:16:29.864Z,21.80
2022-12-28T17:18:58.629Z,22.80
2022-12-28T17:21:26.963Z,27.40
2022-12-28T17:23:55.215Z,22.50
2022-12-28T17:26:23.450Z,22.60
2022-12-28T17:28:51.822Z,23.20
2022-12-28T17:31:21.651Z,21.70
2022-12-28T17:33:53.367Z,23.10
2022-12-28T17:38:49.934Z,25.70
2022-12-28T17:41:20.748Z,24.50
2022-12-28T17:43:50.452Z,24.40
2022-12-28T17:46:19.487Z,24.20
2022-12-28T17:48:48.115Z,24.50
2022-12-28T17:51:16.616Z,24.50
2022-12-28T17:53:44.961Z,23.20
2022-12-28T17:56:15.391Z,24.30
2022-12-28T17:58:44.913Z,25.20
2022-12-28T18:01:13.853Z,24.10
2022-12-28T18:03:42.835Z,23.90
2022-12-28T18:06:11.262Z,22.60
2022-12-28T18:08:39.653Z,24.10
2022-12-28T18:11:10.482Z,19.50
2022-12-28T18:13:39.410Z,23.90
2022-12-28T18:16:11.558Z,22.70
2022-12-28T18:18:40.093Z,24.00
2022-12-28T18:21:16.460Z,22.50
2022-12-28T18:23:49.502Z,23.50
2022-12-28T18:26:19.800Z,25.60
2022-12-28T18:28:48.491Z,25.60
2022-12-28T18:31:17.164Z,21.70
2022-12-28T18:33:46.180Z,27.30
2022-12-28T18:36:18.039Z,24.80
2022-12-28T18:38:48.339Z,28.90
2022-12-28T18:41:21.659Z,24.30
2022-12-28T18:43:53.112Z,24.60
2022-12-28T18:46:21.669Z,24.30
2022-12-28T18:48:55.864Z,28.40
2022-12-28T18:51:24.171Z,28.20
2022-12-28T18:53:52.397Z,25.80
2022-12-28T18:56:21.390Z,28.00
2022-12-28T18:58:52.539Z,26.30
2022-12-28T19:02:04.599Z,31.10
2022-12-28T19:04:11.734Z,25.70
2022-12-28T19:06:40.845Z,26.20
2022-12-28T19:09:13.071Z,25.90
2022-12-28T19:11:41.895Z,26.30
2022-12-28T19:14:13.690Z,23.70
2022-12-28T19:16:43.338Z,25.50
2022-12-28T19:19:11.632Z,27.30
2022-12-28T19:21:41.538Z,24.30
2022-12-28T19:24:13.841Z,24.70
2022-12-28T19:26:42.633Z,23.80
2022-12-28T19:29:12.375Z,27.30
2022-12-28T19:31:40.919Z,26.00
2022-12-28T19:34:09.926Z,26.20
2022-12-28T19:36:41.320Z,26.90
2022-12-28T19:39:11.871Z,27.40
2022-12-28T19:41:45.272Z,32.50
2022-12-28T19:44:22.459Z,27.30
2022-12-28T19:46:53.377Z,26.30
2022-12-28T19:49:21.829Z,25.10
2022-12-28T19:51:50.149Z,29.30
2022-12-28T19:54:18.529Z,27.30
2022-12-28T19:56:46.824Z,25.70
2022-12-28T19:59:16.806Z,28.60
2022-12-28T20:01:45.169Z,25.00
2022-12-28T20:04:14.603Z,30.40
2022-12-28T20:06:46.135Z,29.80
2022-12-28T20:09:20.023Z,30.40
2022-12-28T20:11:48.750Z,27.90
2022-12-28T20:14:24.682Z,27.50
2022-12-28T20:16:54.000Z,30.10
2022-12-28T20:19:22.528Z,23.10
2022-12-28T20:21:51.890Z,27.10
2022-12-28T20:24:21.102Z,25.00
2022-12-28T20:26:49.722Z,24.40
2022-12-28T20:29:20.243Z,24.60
2022-12-28T20:31:51.041Z,27.40
2022-12-28T20:34:19.691Z,23.80
2022-12-28T20:36:48.793Z,22.50
2022-12-28T20:39:17.225Z,23.60
2022-12-28T20:42:09.258Z,24.90
2022-12-28T20:44:37.651Z,22.10
2022-12-28T20:47:06.254Z,23.50
2022-12-28T20:49:35.809Z,25.40
2022-12-28T20:52:04.446Z,22.80
2022-12-28T20:54:32.871Z,23.50
2022-12-28T20:57:03.381Z,23.10
2022-12-28T20:59:33.179Z,23.80
2022-12-28T21:02:01.712Z,22.40
2022-12-28T21:04:30.386Z,22.50
2022-12-28T21:06:58.836Z,22.80
2022-12-28T21:09:27.324Z,20.70
2022-12-28T21:11:55.830Z,24.50
2022-12-28T21:14:25.188Z,23.90
2022-12-28T21:16:53.592Z,21.50
2022-12-28T21:19:22.176Z,21.90
2022-12-28T21:21:50.422Z,21.30
2022-12-28T21:24:18.696Z,20.20
2022-12-28T21:26:47.009Z,23.70
2022-12-28T21:29:17.871Z,19.30
2022-12-28T21:31:51.320Z,20.40
2022-12-28T21:34:19.602Z,18.50
2022-12-28T21:36:47.862Z,18.50
2022-12-28T21:39:16.195Z,20.20
2022-12-28T21:41:50.351Z,22.00
2022-12-28T21:44:20.590Z,19.90
2022-12-28T21:46:50.545Z,17.50
2022-12-28T21:49:19.537Z,20.40
2022-12-28T21:51:47.770Z,17.30
2022-12-28T21:54:17.927Z,17.40
2022-12-28T21:56:50.494Z,19.20
2022-12-28T21:59:19.910Z,19.30
2022-12-28T22:02:06.674Z,18.50
2022-12-28T22:05:03.232Z,21.50
2022-12-28T22:07:34.322Z,16.70
2022-12-28T22:10:21.237Z,21.20
2022-12-28T22:12:49.441Z,19.00
2022-12-28T22:15:37.974Z,18.90
2022-12-28T22:18:08.237Z,20.50
2022-12-28T22:20:37.567Z,19.40
2022-12-28T22:23:06.301Z,19.20
2022-12-28T22:25:35.427Z,17.90
2022-12-28T22:28:05.071Z,19.20
2022-12-28T22:30:34.695Z,20.50
2022-12-28T22:33:03.596Z,17.60
2022-12-28T22:35:32.132Z,17.20
2022-12-28T22:38:00.531Z,18.10
2022-12-28T22:40:28.876Z,19.10
2022-12-28T22:42:57.130Z,18.30
2022-12-28T22:45:25.984Z,16.50
2022-12-28T22:47:58.502Z,17.70
2022-12-28T22:50:27.764Z,18.80
2022-12-28T22:52:56.600Z,15.20
2022-12-28T22:55:25.007Z,15.70
2022-12-28T22:57:53.224Z,16.60
2022-12-28T23:00:21.764Z,17.80
2022-12-28T23:02:50.234Z,15.40
2022-12-28T23:05:18.596Z,18.80
2022-12-28T23:07:46.788Z,14.80
2022-12-28T23:10:15.307Z,16.70
2022-12-28T23:12:43.529Z,16.70
2022-12-28T23:15:19.248Z,14.60
2022-12-28T23:17:48.508Z,14.70
2022-12-28T23:20:36.575Z,14.00
2022-12-28T23:23:23.269Z,18.10
2022-12-28T23:26:09.468Z,13.20
2022-12-28T23:28:37.683Z,12.30
2022-12-28T23:31:06.213Z,12.40
2022-12-28T23:33:35.844Z,14.50
2022-12-28T23:36:05.218Z,12.20
2022-12-28T23:38:34.076Z,12.70
2022-12-28T23:41:24.399Z,13.10
2022-12-28T23:43:52.625Z,13.40
2022-12-28T23:46:20.968Z,11.40
2022-12-28T23:48:49.230Z,11.20
2022-12-28T23:51:17.438Z,10.60
2022-12-28T23:53:45.884Z,11.50
2022-12-28T23:56:14.069Z,12.00
2022-12-28T23:58:42.321Z,11.40
